Time;durP1;ratioP1;P1;durP2;ratioP2;P2;SDS_P1;SDS_P2;PMS_P1;PMS_P2;Temp;Humidity;BMP_temperature;BMP_pressure;BME280_temperature;BME280_humidity;BME280_pressure;Samples;Min_cycle;Max_cycle;Signal;HPM_P1;HPM_P2
2023/07/19 00:00:50;;;;;;;1.40;1.30;;;20.90;65.50;;;;;;5136761;27;20174;-86
2023/07/19 00:03:17;;;;;;;0.90;0.90;;;20.90;65.50;;;;;;5136884;27;20148;-86
2023/07/19 00:05:42;;;;;;;1.20;1.10;;;20.90;65.50;;;;;;5101288;27;20598;-84
2023/07/19 00:08:08;;;;;;;1.20;1.10;;;20.90;65.50;;;;;;5136930;27;20204;-83
2023/07/19 00:10:34;;;;;;;1.40;1.30;;;20.90;65.50;;;;;;5118793;27;20258;-83
2023/07/19 00:13:00;;;;;;;1.20;1.10;;;21.00;65.50;;;;;;5118097;27;20195;-83
2023/07/19 00:15:26;;;;;;;1.58;1.10;;;20.90;65.50;;;;;;5101752;27;20156;-84
2023/07/19 00:17:52;;;;;;;1.30;1.20;;;21.00;65.60;;;;;;5118178;27;20620;-84
2023/07/19 00:20:19;;;;;;;1.30;1.20;;;20.90;65.50;;;;;;5136451;27;20659;-85
2023/07/19 00:22:45;;;;;;;1.40;1.30;;;20.90;65.50;;;;;;5136396;27;20491;-83
2023/07/19 00:25:11;;;;;;;1.52;1.30;;;20.90;65.50;;;;;;5117884;27;20191;-83
2023/07/19 00:27:37;;;;;;;1.20;1.10;;;20.90;65.60;;;;;;5118309;27;20508;-84
2023/07/19 00:30:03;;;;;;;1.30;1.20;;;21.00;65.60;;;;;;5136907;27;20160;-82
2023/07/19 00:32:29;;;;;;;1.42;1.33;;;20.90;65.50;;;;;;5117766;27;20179;-86
2023/07/19 00:34:55;;;;;;;1.33;1.08;;;20.90;65.50;;;;;;5117746;27;20187;-86
2023/07/19 00:37:21;;;;;;;1.20;1.10;;;20.90;65.50;;;;;;5136107;27;20160;-82
2023/07/19 00:39:47;;;;;;;0.82;0.82;;;21.00;65.50;;;;;;5136085;27;20212;-83
2023/07/19 00:42:13;;;;;;;1.45;1.15;;;20.90;65.50;;;;;;5136178;27;20151;-84
2023/07/19 00:44:39;;;;;;;1.00;0.90;;;20.90;65.50;;;;;;5135962;27;20151;-83
2023/07/19 00:47:05;;;;;;;1.30;1.20;;;20.90;65.50;;;;;;5100792;27;20249;-82
2023/07/19 00:49:31;;;;;;;1.15;1.10;;;20.90;65.50;;;;;;5136193;27;20496;-85
2023/07/19 00:51:58;;;;;;;1.02;0.98;;;20.90;65.50;;;;;;5114498;28;20252;-82
2023/07/19 00:54:24;;;;;;;1.30;1.20;;;20.90;65.60;;;;;;5115497;28;20188;-84
2023/07/19 00:56:50;;;;;;;1.20;1.10;;;20.90;65.60;;;;;;5114359;28;20629;-85
2023/07/19 00:59:16;;;;;;;1.33;1.20;;;20.90;65.50;;;;;;5114117;28;20539;-82
2023/07/19 01:01:44;;;;;;;1.13;1.00;;;20.90;65.50;;;;;;5113870;28;20164;-87
2023/07/19 01:04:10;;;;;;;1.20;1.10;;;20.90;65.50;;;;;;5113851;28;20159;-85
2023/07/19 01:06:36;;;;;;;0.93;0.93;;;20.90;65.50;;;;;;5097317;28;20196;-83
2023/07/19 01:09:03;;;;;;;1.00;1.00;;;20.90;65.60;;;;;;5096700;28;20657;-83
2023/07/19 01:11:29;;;;;;;1.27;1.17;;;20.90;65.50;;;;;;5113756;28;20255;-84
2023/07/19 01:13:55;;;;;;;1.30;1.20;;;20.90;65.50;;;;;;5114803;28;20267;-84
2023/07/19 01:16:21;;;;;;;1.20;1.10;;;20.90;65.50;;;;;;5114799;28;20530;-84
2023/07/19 01:18:47;;;;;;;1.25;1.15;;;20.90;65.50;;;;;;5113822;28;20171;-83
2023/07/19 01:21:13;;;;;;;1.13;1.00;;;20.90;65.40;;;;;;5097216;28;20186;-86
2023/07/19 01:23:39;;;;;;;1.30;1.10;;;20.90;65.40;;;;;;5113573;28;20611;-83
2023/07/19 01:26:05;;;;;;;1.30;1.20;;;20.90;65.50;;;;;;5113813;28;20148;-81
2023/07/19 01:28:31;;;;;;;1.23;1.13;;;20.90;65.50;;;;;;5113634;28;20178;-86
2023/07/19 01:31:01;;;;;;;1.00;1.00;;;20.90;65.50;;;;;;5113359;28;20199;-86
2023/07/19 01:33:27;;;;;;;1.40;1.30;;;20.90;65.50;;;;;;5096784;28;20206;-85
2023/07/19 01:35:53;;;;;;;1.10;1.00;;;20.90;65.50;;;;;;5096564;28;20246;-83
2023/07/19 01:38:19;;;;;;;1.20;1.10;;;20.90;65.50;;;;;;5114507;28;20213;-85
2023/07/19 01:40:45;;;;;;;1.30;1.20;;;20.90;65.50;;;;;;5096280;28;20259;-84
2023/07/19 01:43:11;;;;;;;1.40;1.30;;;20.90;65.50;;;;;;5096160;28;20172;-82
2023/07/19 01:45:37;;;;;;;1.30;1.17;;;20.90;65.50;;;;;;5095784;28;20171;-84
2023/07/19 01:48:03;;;;;;;1.30;1.20;;;20.90;65.50;;;;;;5112491;28;20144;-85
2023/07/19 01:50:29;;;;;;;1.20;1.10;;;21.00;65.60;;;;;;5095900;28;20246;-85
2023/07/19 01:52:55;;;;;;;1.10;1.00;;;20.90;65.50;;;;;;5112987;28;20230;-86
2023/07/19 01:55:21;;;;;;;0.90;0.90;;;20.80;65.50;;;;;;5112910;28;20273;-85
2023/07/19 01:57:48;;;;;;;1.42;1.33;;;20.90;65.40;;;;;;5095905;28;20619;-84
2023/07/19 02:00:14;;;;;;;1.20;1.10;;;20.90;65.50;;;;;;5112936;28;20162;-85
2023/07/19 02:02:40;;;;;;;0.93;0.93;;;20.90;65.50;;;;;;5096277;28;20251;-86
2023/07/19 02:05:07;;;;;;;1.40;1.10;;;20.90;65.50;;;;;;5095774;28;20247;-87
2023/07/19 02:07:33;;;;;;;1.20;1.10;;;20.80;65.50;;;;;;5112853;28;20151;-85
2023/07/19 02:09:59;;;;;;;0.98;0.93;;;20.90;65.50;;;;;;5113936;28;20536;-83
2023/07/19 02:12:24;;;;;;;1.23;1.13;;;20.90;65.40;;;;;;5114009;28;20174;-83
2023/07/19 02:14:53;;;;;;;1.20;1.10;;;20.90;65.50;;;;;;5112718;28;20614;-84
2023/07/19 02:17:19;;;;;;;1.30;1.20;;;20.90;65.50;;;;;;5096441;28;20591;-87
2023/07/19 02:19:45;;;;;;;1.20;1.10;;;20.90;65.50;;;;;;5112750;28;20144;-83
2023/07/19 02:22:11;;;;;;;1.20;1.10;;;20.90;65.50;;;;;;5112562;28;20622;-84
2023/07/19 02:24:37;;;;;;;1.05;1.00;;;20.90;65.50;;;;;;5113181;28;20160;-85
2023/07/19 02:27:03;;;;;;;1.40;1.30;;;20.80;65.40;;;;;;5112566;28;20149;-85
2023/07/19 02:29:29;;;;;;;1.50;1.00;;;20.90;65.50;;;;;;5113745;28;20152;-82
2023/07/19 02:31:55;;;;;;;1.17;1.08;;;20.80;65.40;;;;;;5095462;28;20205;-81
2023/07/19 02:34:21;;;;;;;1.17;1.13;;;20.80;65.40;;;;;;5112409;28;20191;-84
2023/07/19 02:36:48;;;;;;;1.10;1.00;;;20.90;65.50;;;;;;5112541;28;20629;-86
2023/07/19 02:39:14;;;;;;;1.42;1.17;;;20.90;65.50;;;;;;5095347;28;20160;-83
2023/07/19 02:41:40;;;;;;;1.20;1.10;;;20.90;65.40;;;;;;5112647;28;20167;-87
2023/07/19 02:44:06;;;;;;;1.10;1.00;;;20.80;65.40;;;;;;5113596;28;20156;-82
2023/07/19 02:46:32;;;;;;;1.27;1.17;;;20.90;65.50;;;;;;5112793;28;20152;-83
2023/07/19 02:48:58;;;;;;;1.20;0.95;;;20.80;65.50;;;;;;5112199;28;20631;-84
2023/07/19 02:51:24;;;;;;;1.10;1.00;;;20.90;65.50;;;;;;5127213;27;20259;-82
2023/07/19 02:53:49;;;;;;;1.27;1.17;;;20.90;65.50;;;;;;5098593;28;20199;-85
2023/07/19 02:56:15;;;;;;;1.10;1.00;;;20.90;65.50;;;;;;5115760;28;20170;-86
2023/07/19 02:58:42;;;;;;;1.40;1.30;;;20.90;65.50;;;;;;5118437;27;20155;-81
2023/07/19 03:01:08;;;;;;;0.93;0.93;;;20.90;65.50;;;;;;5102576;27;20183;-83
2023/07/19 03:03:34;;;;;;;1.60;1.10;;;20.90;65.40;;;;;;5119892;27;20194;-84
2023/07/19 03:06:02;;;;;;;1.25;1.15;;;20.90;65.40;;;;;;5137886;27;20147;-82
2023/07/19 03:08:28;;;;;;;1.27;1.17;;;20.90;65.40;;;;;;5119820;27;20150;-83
2023/07/19 03:10:54;;;;;;;1.25;1.00;;;20.90;65.50;;;;;;5102542;27;20156;-83
2023/07/19 03:13:20;;;;;;;1.17;1.08;;;20.90;65.40;;;;;;5119596;27;20187;-87
2023/07/19 03:15:46;;;;;;;1.10;1.00;;;20.90;65.50;;;;;;5102308;27;20162;-82
2023/07/19 03:18:12;;;;;;;1.10;1.00;;;20.90;65.50;;;;;;5137942;27;20182;-82
2023/07/19 03:20:38;;;;;;;1.05;0.98;;;20.90;65.40;;;;;;5102164;27;20227;-85
2023/07/19 03:23:04;;;;;;;1.00;1.00;;;20.90;65.50;;;;;;5137627;27;20160;-86
2023/07/19 03:25:30;;;;;;;1.25;1.15;;;20.90;65.40;;;;;;5137645;27;20184;-84
2023/07/19 03:27:56;;;;;;;1.00;1.00;;;20.90;65.50;;;;;;5119275;27;20150;-83
2023/07/19 03:30:22;;;;;;;1.20;1.10;;;20.90;65.50;;;;;;5119497;27;20226;-84
2023/07/19 03:32:48;;;;;;;1.45;1.05;;;20.90;65.50;;;;;;5118987;27;20176;-88
2023/07/19 03:35:14;;;;;;;1.90;1.35;;;20.90;65.40;;;;;;5101897;27;20169;-82
2023/07/19 03:37:47;;;;;;;1.20;1.10;;;20.90;65.40;;;;;;5102000;27;20159;-83
2023/07/19 03:40:13;;;;;;;1.10;1.00;;;20.90;65.30;;;;;;5102780;27;20583;-85
2023/07/19 03:42:39;;;;;;;0.90;0.90;;;20.90;65.20;;;;;;5118941;27;20190;-84
2023/07/19 03:45:06;;;;;;;1.00;0.90;;;20.90;65.10;;;;;;5118900;27;20204;-85
2023/07/19 03:47:32;;;;;;;2.30;1.17;;;20.90;65.00;;;;;;5118644;27;20156;-86
2023/07/19 03:49:58;;;;;;;1.20;1.10;;;21.00;65.10;;;;;;5137413;27;20158;-87
2023/07/19 03:52:24;;;;;;;1.10;1.00;;;20.90;65.00;;;;;;5118448;27;20219;-86
2023/07/19 03:54:50;;;;;;;1.52;1.30;;;21.00;64.90;;;;;;5118872;27;20236;-84
2023/07/19 03:57:17;;;;;;;1.30;1.20;;;21.00;64.80;;;;;;5102041;27;20159;-83
2023/07/19 03:59:42;;;;;;;1.20;1.10;;;21.00;64.80;;;;;;5136870;27;20163;-84
2023/07/19 04:02:08;;;;;;;1.17;1.00;;;21.00;64.70;;;;;;5118541;27;20155;-84
2023/07/19 04:04:34;;;;;;;1.30;1.02;;;21.10;65.50;;;;;;5118489;27;20164;-84
2023/07/19 04:07:00;;;;;;;0.90;0.90;;;21.00;64.60;;;;;;5136793;27;20155;-85
2023/07/19 04:09:26;;;;;;;1.30;1.20;;;21.10;64.50;;;;;;5117292;27;20147;-85
2023/07/19 04:11:52;;;;;;;1.23;1.13;;;21.00;64.50;;;;;;5118565;27;20152;-84
2023/07/19 04:14:18;;;;;;;1.13;1.02;;;21.10;64.50;;;;;;5101215;27;20282;-86
2023/07/19 04:16:45;;;;;;;1.33;1.20;;;21.10;64.60;;;;;;5118142;27;20636;-84
2023/07/19 04:19:11;;;;;;;1.50;1.30;;;21.10;64.30;;;;;;5101625;27;20163;-86
2023/07/19 04:21:37;;;;;;;1.35;1.20;;;21.10;64.40;;;;;;5118403;27;20232;-85
2023/07/19 04:24:03;;;;;;;1.17;1.08;;;21.10;64.30;;;;;;5100954;27;20625;-84
2023/07/19 04:26:28;;;;;;;1.20;1.10;;;21.10;64.20;;;;;;5100955;27;20171;-84
2023/07/19 04:28:55;;;;;;;0.80;0.73;;;21.20;64.10;;;;;;5100934;27;20163;-87
2023/07/19 04:31:21;;;;;;;1.23;1.13;;;21.10;64.10;;;;;;5100823;27;20214;-82
2023/07/19 04:33:47;;;;;;;1.38;1.10;;;21.10;64.10;;;;;;5100684;27;20199;-86
2023/07/19 04:36:14;;;;;;;1.02;1.00;;;21.20;64.10;;;;;;5136811;27;20154;-81
2023/07/19 04:38:40;;;;;;;1.17;1.08;;;21.20;64.10;;;;;;5117842;27;20204;-86
2023/07/19 04:41:07;;;;;;;1.17;1.08;;;21.20;63.90;;;;;;5100920;27;20164;-86
2023/07/19 04:43:33;;;;;;;1.20;1.10;;;21.20;63.80;;;;;;5100657;27;20194;-83
2023/07/19 04:45:59;;;;;;;1.17;1.00;;;21.30;63.70;;;;;;5100544;27;20534;-84
2023/07/19 04:48:24;;;;;;;0.98;0.98;;;21.20;63.70;;;;;;5135958;27;20261;-84
2023/07/19 04:50:54;;;;;;;1.10;1.00;;;21.30;63.70;;;;;;5117222;27;20318;-82
2023/07/19 04:53:21;;;;;;;1.27;1.17;;;21.30;63.50;;;;;;5084060;27;20207;-82
2023/07/19 04:55:48;;;;;;;1.13;1.02;;;21.30;63.70;;;;;;5118049;27;20160;-85
2023/07/19 04:58:14;;;;;;;1.08;0.98;;;21.20;63.60;;;;;;5100381;27;20170;-82
2023/07/19 05:00:40;;;;;;;1.35;1.05;;;21.30;63.60;;;;;;5117698;27;20154;-83
2023/07/19 05:03:06;;;;;;;1.20;1.10;;;21.20;63.70;;;;;;5135734;27;20156;-83
2023/07/19 05:05:32;;;;;;;1.20;1.10;;;21.30;63.60;;;;;;5100289;27;20622;-85
2023/07/19 05:07:58;;;;;;;1.30;1.20;;;21.20;63.50;;;;;;5117426;27;20139;-84
2023/07/19 05:10:24;;;;;;;1.05;1.02;;;21.30;63.40;;;;;;5117202;27;20147;-85
2023/07/19 05:12:50;;;;;;;1.42;1.10;;;21.30;63.20;;;;;;5135624;27;20174;-86
2023/07/19 05:15:16;;;;;;;1.27;1.10;;;21.30;63.30;;;;;;5117243;27;20154;-84
2023/07/19 05:17:42;;;;;;;1.13;1.02;;;21.40;63.30;;;;;;5116940;27;20155;-85
2023/07/19 05:20:09;;;;;;;1.20;1.10;;;21.30;63.40;;;;;;5099880;27;20204;-84
2023/07/19 05:22:35;;;;;;;1.67;0.95;;;21.30;63.40;;;;;;5099931;27;20265;-83
2023/07/19 05:25:03;;;;;;;2.00;1.20;;;21.30;63.30;;;;;;5116931;27;20151;-82
2023/07/19 05:27:29;;;;;;;1.00;0.95;;;21.30;63.30;;;;;;5100018;27;20198;-84
2023/07/19 05:29:55;;;;;;;0.85;0.85;;;21.40;63.30;;;;;;5099729;27;20525;-84
2023/07/19 05:32:21;;;;;;;1.20;1.10;;;21.30;63.40;;;;;;5099689;27;20643;-83
2023/07/19 05:34:47;;;;;;;1.27;1.08;;;21.30;63.30;;;;;;5117438;27;20199;-82
2023/07/19 05:37:13;;;;;;;0.85;0.85;;;21.30;63.30;;;;;;5135014;27;20175;-85
2023/07/19 05:39:39;;;;;;;1.00;0.90;;;21.30;63.40;;;;;;5135016;27;20495;-82
2023/07/19 05:42:05;;;;;;;0.90;0.90;;;21.20;63.70;;;;;;5099670;27;20166;-86
2023/07/19 05:44:31;;;;;;;1.30;1.13;;;21.10;63.90;;;;;;5099572;27;20531;-87
2023/07/19 05:46:57;;;;;;;0.95;0.88;;;21.10;64.10;;;;;;5135051;27;20152;-86
2023/07/19 05:49:23;;;;;;;0.98;0.82;;;21.20;64.10;;;;;;5099433;27;20251;-84
2023/07/19 05:51:50;;;;;;;1.05;0.95;;;21.10;64.30;;;;;;5116306;27;20655;-85
2023/07/19 05:54:16;;;;;;;1.05;0.85;;;20.90;64.50;;;;;;5116630;27;20564;-82
2023/07/19 05:56:42;;;;;;;1.05;0.95;;;20.90;64.70;;;;;;5134757;27;20238;-84
2023/07/19 05:59:08;;;;;;;1.20;1.00;;;20.90;64.90;;;;;;5116689;27;20183;-86
2023/07/19 06:01:34;;;;;;;2.15;1.08;;;20.90;65.10;;;;;;5116370;27;20196;-85
2023/07/19 06:04:01;;;;;;;1.02;0.93;;;20.80;65.20;;;;;;5116355;27;20322;-84
2023/07/19 06:06:27;;;;;;;0.80;0.80;;;20.80;65.30;;;;;;5116657;27;20610;-84
2023/07/19 06:08:52;;;;;;;1.15;0.80;;;20.80;65.40;;;;;;5116211;27;20173;-84
2023/07/19 06:11:18;;;;;;;1.08;0.98;;;20.80;66.30;;;;;;5116136;28;20606;-85
2023/07/19 06:13:44;;;;;;;0.90;0.80;;;20.70;65.40;;;;;;5099069;28;20546;-88
2023/07/19 06:16:10;;;;;;;0.95;0.90;;;20.70;65.60;;;;;;5116097;27;20636;-83
2023/07/19 06:18:36;;;;;;;1.05;0.95;;;20.70;65.70;;;;;;5134404;27;20628;-85
2023/07/19 06:21:02;;;;;;;1.13;0.95;;;20.70;65.70;;;;;;5115946;27;20223;-85
2023/07/19 06:23:28;;;;;;;1.55;0.93;;;20.70;65.80;;;;;;5134564;27;20556;-85
2023/07/19 06:25:54;;;;;;;1.08;0.90;;;20.70;65.80;;;;;;5116013;28;20156;-84
2023/07/19 06:28:20;;;;;;;0.85;0.82;;;20.80;65.80;;;;;;5099319;28;20156;-87
2023/07/19 06:30:46;;;;;;;0.90;0.90;;;20.70;65.70;;;;;;5115979;28;20159;-83
2023/07/19 06:33:12;;;;;;;1.00;0.90;;;20.80;65.80;;;;;;5117888;27;20190;-87
2023/07/19 06:35:38;;;;;;;0.70;0.70;;;20.80;65.70;;;;;;5103184;27;20187;-84
2023/07/19 06:38:04;;;;;;;0.98;0.80;;;20.70;65.60;;;;;;5120183;27;20163;-82
2023/07/19 06:40:30;;;;;;;0.85;0.80;;;20.70;65.70;;;;;;5120080;27;20583;-84
2023/07/19 06:42:56;;;;;;;0.80;0.80;;;20.70;66.00;;;;;;5103005;27;20625;-84
2023/07/19 06:45:22;;;;;;;0.75;0.75;;;20.80;65.80;;;;;;5120558;27;20211;-84
2023/07/19 06:47:47;;;;;;;1.10;0.90;;;20.70;65.80;;;;;;5119931;27;20551;-84
2023/07/19 06:50:13;;;;;;;1.33;0.93;;;20.70;65.80;;;;;;5102530;27;20155;-86
2023/07/19 06:52:39;;;;;;;1.00;0.80;;;20.70;66.00;;;;;;5085899;27;20280;-84
2023/07/19 06:55:05;;;;;;;1.00;0.85;;;20.70;66.00;;;;;;5138202;27;20159;-89
2023/07/19 06:57:31;;;;;;;0.80;0.80;;;20.70;66.10;;;;;;5138258;27;20156;-83
2023/07/19 06:59:58;;;;;;;1.23;1.00;;;20.70;66.10;;;;;;5119738;27;20175;-83
2023/07/19 07:02:24;;;;;;;1.00;1.00;;;20.70;66.20;;;;;;5102630;27;20204;-85
2023/07/19 07:04:51;;;;;;;1.13;0.90;;;20.70;66.10;;;;;;5119614;27;20160;-86
2023/07/19 07:07:19;;;;;;;1.10;1.00;;;20.70;66.00;;;;;;5138033;27;20545;-84
2023/07/19 07:09:45;;;;;;;1.33;0.90;;;20.70;66.10;;;;;;5137827;27;20143;-87
2023/07/19 07:12:11;;;;;;;1.02;0.95;;;20.80;66.00;;;;;;5102418;27;20696;-87
2023/07/19 07:14:38;;;;;;;1.20;1.10;;;20.80;65.90;;;;;;5119230;27;20600;-85
2023/07/19 07:17:05;;;;;;;1.17;1.08;;;20.90;65.90;;;;;;5137861;27;20152;-84
2023/07/19 07:19:31;;;;;;;0.80;0.80;;;21.00;65.40;;;;;;5137588;27;20238;-87
2023/07/19 07:21:57;;;;;;;1.23;1.00;;;21.10;65.00;;;;;;5119373;27;20155;-84
2023/07/19 07:24:23;;;;;;;0.98;0.88;;;21.10;65.00;;;;;;5137663;27;20143;-86
2023/07/19 07:26:49;;;;;;;1.10;1.00;;;21.10;65.00;;;;;;5137553;27;20673;-86
2023/07/19 07:29:15;;;;;;;1.13;1.00;;;21.10;64.90;;;;;;5102091;27;20198;-85
2023/07/19 07:31:42;;;;;;;0.80;0.80;;;21.10;65.00;;;;;;5119098;27;20155;-86
2023/07/19 07:34:08;;;;;;;1.85;0.90;;;21.20;64.80;;;;;;5119124;27;20637;-84
2023/07/19 07:36:34;;;;;;;0.90;0.82;;;21.20;64.50;;;;;;5119133;27;20152;-83
2023/07/19 07:38:59;;;;;;;1.88;0.98;;;21.20;64.70;;;;;;5119039;27;20162;-83
2023/07/19 07:41:26;;;;;;;1.20;0.88;;;21.20;64.70;;;;;;5101797;27;20194;-83
2023/07/19 07:43:51;;;;;;;0.98;0.93;;;21.20;64.90;;;;;;5118873;27;20532;-84
2023/07/19 07:46:17;;;;;;;1.00;0.90;;;21.10;64.70;;;;;;5118795;27;20242;-86
2023/07/19 07:48:43;;;;;;;1.00;0.90;;;21.20;65.40;;;;;;5119108;27;20178;-86
2023/07/19 07:51:09;;;;;;;1.50;1.02;;;21.20;64.60;;;;;;5099271;28;20231;-88
2023/07/19 07:53:35;;;;;;;1.48;0.93;;;21.20;64.80;;;;;;5099375;28;20265;-84
2023/07/19 07:56:05;;;;;;;0.95;0.75;;;21.20;64.90;;;;;;5116883;28;20646;-83
2023/07/19 07:58:31;;;;;;;1.58;1.17;;;21.20;64.70;;;;;;5081779;28;20535;-86
2023/07/19 08:00:57;;;;;;;1.15;1.05;;;21.20;64.70;;;;;;5116514;28;20165;-85
2023/07/19 08:03:23;;;;;;;1.30;1.15;;;21.20;64.80;;;;;;5117739;28;20164;-85
2023/07/19 08:05:48;;;;;;;0.80;0.70;;;21.30;64.80;;;;;;5116494;28;20712;-84
2023/07/19 08:08:14;;;;;;;1.20;1.10;;;21.20;64.90;;;;;;5116499;28;20200;-84
2023/07/19 08:10:40;;;;;;;1.52;0.95;;;21.30;64.70;;;;;;5115643;28;20209;-84
2023/07/19 08:13:07;;;;;;;0.80;0.70;;;21.30;64.50;;;;;;5097867;28;20241;-87
2023/07/19 08:15:33;;;;;;;1.00;0.90;;;21.30;64.40;;;;;;5098538;28;20546;-85
2023/07/19 08:18:00;;;;;;;1.15;1.05;;;21.30;64.80;;;;;;5129171;27;20160;-83
2023/07/19 08:20:26;;;;;;;1.10;1.00;;;21.20;65.00;;;;;;5114771;28;20160;-87
2023/07/19 08:22:52;;;;;;;1.33;1.00;;;21.20;65.00;;;;;;5115409;28;20167;-85
2023/07/19 08:25:21;;;;;;;0.93;0.93;;;21.20;64.90;;;;;;5116023;28;20156;-84
2023/07/19 08:27:49;;;;;;;0.77;0.77;;;21.30;64.80;;;;;;5111831;28;20697;-86
2023/07/19 08:30:17;;;;;;;1.05;0.90;;;21.30;64.90;;;;;;5112044;28;20180;-84
2023/07/19 08:32:44;;;;;;;3.13;1.25;;;21.30;64.90;;;;;;5096907;28;20304;-84
2023/07/19 08:35:14;;;;;;;1.10;0.90;;;21.20;65.60;;;;;;5114747;28;20151;-86
2023/07/19 08:37:43;;;;;;;2.97;1.05;;;21.10;66.10;;;;;;5080104;28;20183;-83
2023/07/19 08:40:15;;;;;;;4.70;1.60;;;21.10;66.80;;;;;;5096882;28;20222;-86
2023/07/19 08:42:43;;;;;;;2.75;1.40;;;21.20;66.60;;;;;;5080123;28;20187;-85
2023/07/19 08:45:11;;;;;;;3.95;1.80;;;21.20;66.80;;;;;;5113851;28;20175;-86
2023/07/19 08:47:39;;;;;;;1.70;1.00;;;21.20;67.20;;;;;;5096537;28;20533;-86
2023/07/19 08:50:05;;;;;;;3.15;1.48;;;21.10;68.20;;;;;;5096487;27;20205;-83
2023/07/19 08:52:33;;;;;;;3.13;1.20;;;21.00;68.90;;;;;;5117737;27;20238;-88
2023/07/19 08:54:59;;;;;;;2.22;1.27;;;21.00;69.00;;;;;;5065742;27;20210;-86
2023/07/19 08:57:27;;;;;;;2.30;1.20;;;20.90;69.20;;;;;;5100313;27;20197;-87
2023/07/19 08:59:54;;;;;;;4.30;1.60;;;20.90;69.50;;;;;;5083148;27;20179;-84
2023/07/19 09:02:21;;;;;;;1.80;1.08;;;20.90;70.30;;;;;;5066441;27;20660;-83
2023/07/19 09:05:07;;;;;;;0.93;0.82;;;20.90;70.00;;;;;;5083400;27;20641;-84
2023/07/19 09:07:34;;;;;;;1.13;1.00;;;20.90;69.00;;;;;;5117587;27;20159;-84
2023/07/19 09:10:01;;;;;;;1.00;0.90;;;20.80;68.80;;;;;;5065657;27;20224;-84
2023/07/19 09:12:41;;;;;;;1.25;0.93;;;20.90;69.20;;;;;;5049176;27;20171;-87
2023/07/19 09:15:09;;;;;;;1.15;1.00;;;21.00;68.50;;;;;;5117185;27;20246;-86
2023/07/19 09:17:45;;;;;;;1.35;1.08;;;21.00;68.80;;;;;;5049577;27;20191;-86
2023/07/19 09:20:12;;;;;;;1.25;1.00;;;20.90;69.20;;;;;;5052269;27;20183;-85
2023/07/19 09:22:39;;;;;;;0.93;0.88;;;20.90;69.00;;;;;;5100064;27;20650;-83
2023/07/19 09:25:06;;;;;;;0.93;0.90;;;20.90;69.10;;;;;;5116777;27;20171;-87
2023/07/19 09:27:36;;;;;;;1.10;1.00;;;20.90;68.60;;;;;;5102839;27;20212;-87
2023/07/19 09:30:03;;;;;;;1.63;1.10;;;20.90;68.30;;;;;;5049498;27;20189;-85
2023/07/19 09:32:29;;;;;;;1.20;0.98;;;21.00;68.60;;;;;;5117170;27;20155;-83
2023/07/19 09:34:56;;;;;;;1.17;1.00;;;20.90;68.60;;;;;;5100311;27;20195;-82
2023/07/19 09:37:23;;;;;;;1.80;1.30;;;21.00;68.60;;;;;;5116583;27;20163;-86
2023/07/19 09:39:49;;;;;;;1.10;1.00;;;21.00;68.30;;;;;;5118193;27;20230;-88
2023/07/19 09:42:15;;;;;;;2.92;1.23;;;21.00;68.00;;;;;;5099644;27;20246;-87
2023/07/19 09:44:41;;;;;;;1.75;1.05;;;21.10;67.60;;;;;;5116860;27;20171;-85
2023/07/19 09:47:08;;;;;;;1.70;1.10;;;21.20;67.60;;;;;;5117199;27;20166;-84
2023/07/19 09:49:36;;;;;;;1.23;1.13;;;21.20;67.30;;;;;;5134904;27;20159;-85
2023/07/19 09:52:03;;;;;;;1.92;1.30;;;21.20;67.10;;;;;;5134651;27;20320;-87
2023/07/19 09:54:30;;;;;;;1.50;1.27;;;21.20;66.90;;;;;;5116319;27;20203;-86
2023/07/19 09:56:56;;;;;;;1.23;1.08;;;21.20;66.80;;;;;;5116283;27;20174;-88
2023/07/19 09:59:27;;;;;;;1.42;1.08;;;21.20;66.90;;;;;;5116344;27;20164;-84
2023/07/19 10:01:53;;;;;;;2.28;1.10;;;21.30;66.70;;;;;;5134618;27;20238;-86
2023/07/19 10:04:33;;;;;;;2.50;1.45;;;21.30;66.70;;;;;;5099972;27;20653;-85
2023/07/19 10:07:11;;;;;;;1.45;1.00;;;21.20;66.80;;;;;;5117442;28;20606;-85
2023/07/19 10:09:40;;;;;;;1.70;1.17;;;21.20;67.00;;;;;;5101503;27;20177;-87
2023/07/19 10:12:08;;;;;;;1.40;1.30;;;21.30;66.50;;;;;;5119071;27;20308;-89
2023/07/19 10:14:34;;;;;;;1.23;1.10;;;21.30;66.50;;;;;;5100899;27;20243;-83
2023/07/19 10:17:01;;;;;;;2.47;1.40;;;21.30;66.50;;;;;;5118007;27;20139;-86
2023/07/19 10:19:27;;;;;;;2.85;1.23;;;21.40;66.30;;;;;;5117494;27;20148;-84
2023/07/19 10:22:05;;;;;;;3.83;1.35;;;21.30;66.40;;;;;;5117688;27;20521;-83
2023/07/19 10:24:32;;;;;;;2.72;1.30;;;21.40;66.10;;;;;;5100519;28;20613;-86
2023/07/19 10:27:12;;;;;;;1.63;1.42;;;21.40;65.90;;;;;;5117450;28;20152;-83
2023/07/19 10:29:41;;;;;;;1.52;1.30;;;21.40;65.90;;;;;;5117377;28;20156;-84
2023/07/19 10:32:07;;;;;;;1.70;1.27;;;21.40;66.00;;;;;;5117451;28;20613;-87
2023/07/19 10:34:33;;;;;;;1.63;1.35;;;21.40;66.00;;;;;;5117617;28;20195;-84
2023/07/19 10:37:03;;;;;;;1.88;1.45;;;21.40;66.00;;;;;;5117996;28;20501;-82
2023/07/19 10:39:30;;;;;;;2.58;1.40;;;21.50;65.70;;;;;;5119097;28;20178;-86
2023/07/19 10:41:56;;;;;;;2.30;1.40;;;21.50;65.20;;;;;;5100654;28;20166;-85
2023/07/19 10:44:22;;;;;;;2.85;1.20;;;21.40;65.80;;;;;;5117892;28;20155;-88
2023/07/19 10:46:48;;;;;;;1.30;1.10;;;21.40;66.10;;;;;;5117284;28;20166;-86
2023/07/19 10:49:14;;;;;;;2.55;1.55;;;21.40;65.60;;;;;;5101201;28;20211;-88
2023/07/19 10:51:52;;;;;;;3.45;1.30;;;21.40;66.30;;;;;;5134256;28;20571;-87
2023/07/19 10:54:18;;;;;;;1.58;1.30;;;21.30;66.50;;;;;;5116358;28;20187;-85
2023/07/19 10:56:46;;;;;;;2.25;1.35;;;21.40;66.10;;;;;;5099414;28;20163;-86
2023/07/19 10:59:12;;;;;;;2.22;1.45;;;21.50;65.70;;;;;;5098864;28;20246;-84
2023/07/19 11:01:38;;;;;;;1.75;1.20;;;21.50;65.50;;;;;;5098813;28;20152;-83
2023/07/19 11:04:05;;;;;;;2.28;1.40;;;21.50;65.50;;;;;;5099000;28;20561;-85
2023/07/19 11:06:33;;;;;;;1.77;1.20;;;21.50;65.70;;;;;;5115737;28;20699;-87
2023/07/19 11:09:06;;;;;;;3.25;1.60;;;21.60;65.50;;;;;;5098889;28;20159;-86
2023/07/19 11:11:35;;;;;;;2.17;1.50;;;21.60;65.60;;;;;;5064467;28;20213;-87
2023/07/19 11:14:00;;;;;;;1.67;1.25;;;21.60;65.70;;;;;;5098876;28;20191;-86
2023/07/19 11:16:26;;;;;;;1.48;1.35;;;21.50;65.80;;;;;;5098781;28;20197;-85
2023/07/19 11:18:53;;;;;;;1.83;1.30;;;21.50;66.20;;;;;;5116744;27;20163;-87
2023/07/19 11:21:27;;;;;;;1.63;1.25;;;21.40;66.40;;;;;;5138159;27;20192;-83
2023/07/19 11:23:53;;;;;;;2.08;1.42;;;21.40;66.10;;;;;;5138288;27;20159;-86
2023/07/19 11:26:18;;;;;;;1.65;1.40;;;21.40;66.10;;;;;;5103021;27;20159;-84
2023/07/19 11:28:50;;;;;;;1.63;1.27;;;21.50;66.00;;;;;;5104715;27;20644;-87
2023/07/19 11:31:35;;;;;;;1.40;1.23;;;21.60;66.00;;;;;;5104123;27;20646;-85
2023/07/19 11:34:06;;;;;;;1.58;1.40;;;21.50;66.40;;;;;;5138004;27;20211;-86
2023/07/19 11:36:32;;;;;;;2.75;1.40;;;21.50;66.30;;;;;;5122846;27;20175;-83
2023/07/19 11:38:57;;;;;;;2.15;1.50;;;21.50;66.20;;;;;;5121584;27;20614;-82
2023/07/19 11:41:31;;;;;;;2.30;1.50;;;21.50;66.00;;;;;;5103206;27;20148;-87
2023/07/19 11:44:00;;;;;;;3.20;1.40;;;21.60;66.00;;;;;;5085729;27;20262;-83
2023/07/19 11:46:29;;;;;;;2.10;1.30;;;21.50;66.50;;;;;;5084324;27;20271;-82
2023/07/19 11:48:58;;;;;;;5.22;2.38;;;21.50;66.40;;;;;;5101351;27;20179;-84
2023/07/19 11:51:25;;;;;;;3.25;1.90;;;21.60;67.40;;;;;;5100722;27;20219;-84
2023/07/19 11:53:54;;;;;;;3.08;1.40;;;21.40;67.30;;;;;;5101803;27;20201;-83
2023/07/19 11:56:19;;;;;;;3.22;1.38;;;21.50;67.70;;;;;;5101235;27;20232;-87
2023/07/19 11:58:45;;;;;;;2.00;1.50;;;21.50;67.00;;;;;;5101767;27;20151;-88
2023/07/19 12:01:13;;;;;;;2.70;1.40;;;21.50;67.60;;;;;;5136013;27;20163;-86
2023/07/19 12:03:38;;;;;;;1.63;1.30;;;21.50;67.50;;;;;;5083835;27;20593;-87
2023/07/19 12:06:08;;;;;;;1.83;1.38;;;21.50;67.90;;;;;;5118402;27;20195;-86
2023/07/19 12:08:34;;;;;;;3.05;1.55;;;21.50;68.30;;;;;;5119022;27;20155;-84
2023/07/19 12:11:02;;;;;;;2.25;1.38;;;21.50;67.40;;;;;;5101435;27;20155;-86
2023/07/19 12:13:28;;;;;;;1.30;1.20;;;21.50;67.40;;;;;;5135866;27;20230;-84
2023/07/19 12:15:53;;;;;;;1.48;1.20;;;21.50;68.00;;;;;;5118251;27;20160;-84
2023/07/19 12:18:20;;;;;;;1.88;1.27;;;21.50;67.20;;;;;;5118609;27;20504;-86
2023/07/19 12:20:46;;;;;;;2.05;1.30;;;21.60;67.80;;;;;;5149877;27;20161;-84
2023/07/19 12:23:12;;;;;;;1.95;1.40;;;21.50;67.90;;;;;;5157283;27;20238;-84
2023/07/19 12:25:40;;;;;;;2.92;1.10;;;21.50;67.50;;;;;;5138754;27;20155;-83
2023/07/19 12:28:05;;;;;;;1.25;1.15;;;21.50;66.90;;;;;;5122089;27;20458;-85
2023/07/19 12:30:31;;;;;;;1.33;1.23;;;21.60;67.60;;;;;;5137664;27;20157;-85
2023/07/19 12:32:56;;;;;;;2.17;1.20;;;21.50;66.90;;;;;;5138372;27;20616;-83
2023/07/19 12:35:22;;;;;;;1.77;1.55;;;21.50;67.10;;;;;;5156944;27;20483;-84
2023/07/19 12:37:48;;;;;;;1.52;1.38;;;21.60;67.80;;;;;;5122118;27;20589;-84
2023/07/19 12:40:14;;;;;;;1.50;1.20;;;21.60;67.00;;;;;;5157282;27;20207;-86
2023/07/19 12:42:40;;;;;;;1.60;1.17;;;21.60;67.40;;;;;;5138391;27;20237;-84
2023/07/19 12:45:09;;;;;;;1.67;1.17;;;21.60;67.80;;;;;;5156713;27;20155;-86